Time;durP1;ratioP1;P1;durP2;ratioP2;P2;SDS_P1;SDS_P2;PMS_P1;PMS_P2;Temp;Humidity;BMP_temperature;BMP_pressure;BME280_temperature;BME280_humidity;BME280_pressure;Samples;Min_cycle;Max_cycle;Signal;HPM_P1;HPM_P2
2022/09/01 00:01:52;;;;;;;;;14.75;14.50;;;;;23.33;50.35;101233.94;4978019;28;45232;-47
2022/09/01 00:04:21;;;;;;;;;12.75;12.00;;;;;23.31;50.48;101239.59;4976370;28;45254;-45
2022/09/01 00:06:48;;;;;;;;;17.00;15.00;;;;;23.30;50.47;101243.38;4976060;28;46388;-45
2022/09/01 00:09:17;;;;;;;;;14.00;14.00;;;;;23.17;50.42;101213.56;4976248;28;45354;-47
2022/09/01 00:11:46;;;;;;;;;13.00;13.00;;;;;23.27;50.71;101235.66;4976740;28;45417;-57
2022/09/01 00:14:13;;;;;;;;;16.25;14.00;;;;;23.26;50.73;101239.44;4976717;28;45434;-46
2022/09/01 00:16:38;;;;;;;;;14.25;13.25;;;;;23.21;50.95;101225.66;4976011;28;47180;-46
2022/09/01 00:19:05;;;;;;;;;14.25;13.50;;;;;23.25;50.80;101231.47;4976285;28;45432;-47
2022/09/01 00:21:37;;;;;;;;;11.40;11.20;;;;;23.15;50.82;101221.13;4976168;28;45295;-47
2022/09/01 00:24:03;;;;;;;;;13.25;11.00;;;;;23.17;51.12;101224.44;4976119;28;45447;-46
2022/09/01 00:26:30;;;;;;;;;16.00;13.25;;;;;23.07;51.03;101214.06;4975862;28;46273;-50
2022/09/01 00:28:55;;;;;;;;;14.00;13.20;;;;;23.10;51.29;101226.38;4975813;28;45370;-44
2022/09/01 00:31:21;;;;;;;;;15.25;14.00;;;;;23.12;51.17;101224.25;4976151;28;45251;-49
2022/09/01 00:33:48;;;;;;;;;14.50;13.25;;;;;23.10;51.24;101224.47;4976209;28;45569;-54
2022/09/01 00:36:15;;;;;;;;;14.25;13.50;;;;;23.08;51.48;101217.59;4977175;28;45590;-44
2022/09/01 00:38:41;;;;;;;;;11.60;11.60;;;;;23.10;51.22;101221.78;4975673;28;45398;-43
2022/09/01 00:41:07;;;;;;;;;18.00;14.00;;;;;23.09;51.52;101217.41;4976094;28;45423;-45
2022/09/01 00:43:49;;;;;;;;;13.75;13.25;;;;;23.10;51.09;101218.22;4976180;28;45401;-53
2022/09/01 00:46:26;;;;;;;;;13.00;12.25;;;;;23.07;50.98;101218.66;4975978;28;46159;-46
2022/09/01 00:48:58;;;;;;;;;17.20;13.60;;;;;23.05;51.49;101218.03;4975886;28;45350;-51
2022/09/01 00:51:25;;;;;;;;;13.00;12.50;;;;;22.94;51.28;101205.16;4975855;28;45769;-51
2022/09/01 00:53:51;;;;;;;;;18.50;13.50;;;;;22.93;51.45;101208.94;4975919;28;45474;-49
2022/09/01 00:56:17;;;;;;;;;14.00;13.00;;;;;22.99;51.65;101222.44;4975746;28;46041;-47
2022/09/01 00:58:42;;;;;;;;;14.25;11.50;;;;;22.95;51.96;101220.41;4976041;28;45291;-46
2022/09/01 01:01:10;;;;;;;;;19.25;14.00;;;;;22.92;52.00;101208.09;4975867;28;45400;-48
2022/09/01 01:03:38;;;;;;;;;16.25;14.75;;;;;22.93;51.78;101211.66;4975736;28;45869;-47
2022/09/01 01:06:07;;;;;;;;;13.75;13.00;;;;;22.91;51.97;101211.84;4975267;28;46362;-50
2022/09/01 01:08:37;;;;;;;;;17.75;15.25;;;;;22.79;52.12;101187.25;4975654;28;45414;-48
2022/09/01 01:11:09;;;;;;;;;15.50;14.25;;;;;22.86;52.04;101208.94;4975745;28;45526;-48
2022/09/01 01:13:57;;;;;;;;;15.75;14.50;;;;;22.86;52.00;101208.94;4975744;28;45449;-55
2022/09/01 01:16:25;;;;;;;;;14.50;13.75;;;;;22.83;52.20;101206.63;4974540;28;45463;-49
2022/09/01 01:18:52;;;;;;;;;15.50;14.00;;;;;22.79;52.11;101206.22;4977152;28;45444;-46
2022/09/01 01:24:34;;;;;;;;;16.25;14.75;;;;;22.75;52.42;101207.72;4998170;28;45413;-44
2022/09/01 01:27:00;;;;;;;;;15.00;13.25;;;;;22.73;52.63;101209.81;4975289;28;45995;-44
2022/09/01 01:29:31;;;;;;;;;15.75;12.75;;;;;22.72;52.50;101207.34;4974047;28;45313;-47
2022/09/01 01:31:57;;;;;;;;;16.00;13.25;;;;;22.67;52.63;101208.81;4975740;28;45457;-48
2022/09/01 01:34:23;;;;;;;;;14.50;13.25;;;;;22.69;52.73;101202.34;4975617;28;45393;-49
2022/09/01 01:36:49;;;;;;;;;17.00;12.50;;;;;22.67;53.25;101203.41;4975088;28;46119;-47
2022/09/01 01:39:19;;;;;;;;;20.25;14.75;;;;;22.66;52.82;101203.59;4976298;28;45363;-47
2022/09/01 01:41:47;;;;;;;;;15.75;14.00;;;;;22.65;53.09;101202.75;4973939;28;45440;-46
2022/09/01 01:44:15;;;;;;;;;14.25;13.50;;;;;22.64;52.88;101206.53;4975368;28;45539;-47
2022/09/01 01:46:44;;;;;;;;;11.00;11.00;;;;;22.62;53.18;101207.78;4973868;28;47421;-45
2022/09/01 01:49:12;;;;;;;;;12.40;12.40;;;;;22.56;53.50;101206.75;4974828;28;45378;-45
2022/09/01 01:51:38;;;;;;;;;11.50;11.50;;;;;22.57;53.30;101208.41;4975248;28;45332;-50
2022/09/01 01:54:04;;;;;;;;;12.75;12.50;;;;;22.56;53.26;101220.31;4975279;28;45775;-46
2022/09/01 01:56:31;;;;;;;;;12.00;12.00;;;;;22.55;53.22;101213.25;4974973;28;46161;-46
2022/09/01 01:58:58;;;;;;;;;14.25;14.25;;;;;22.52;53.55;101221.78;4976390;28;45425;-47
2022/09/01 02:01:27;;;;;;;;;11.00;8.00;;;;;22.49;53.84;101218.69;4975215;28;45181;-46
2022/09/01 02:03:54;;;;;;;;;15.00;12.75;;;;;22.46;53.54;101210.97;4975126;28;45350;-45
2022/09/01 02:06:23;;;;;;;;;16.75;10.75;;;;;22.47;53.59;101218.06;4974578;28;46469;-44
2022/09/01 02:08:56;;;;;;;;;13.00;13.00;;;;;22.45;53.87;101220.97;4976347;28;45513;-46
2022/09/01 02:11:23;;;;;;;;;12.00;12.00;;;;;22.39;53.93;101219.13;4974895;28;45296;-48
2022/09/01 02:13:48;;;;;;;;;13.00;12.50;;;;;22.38;53.79;101209.34;4974898;28;45411;-47
2022/09/01 02:16:15;;;;;;;;;15.50;12.00;;;;;22.33;53.97;101212.69;4974638;28;45317;-46
2022/09/01 02:18:48;;;;;;;;;15.00;15.00;;;;;22.31;54.16;101217.47;4976325;28;45354;-45
2022/09/01 02:21:19;;;;;;;;;13.75;12.50;;;;;22.28;54.00;101222.50;4975079;28;45528;-45
2022/09/01 02:23:58;;;;;;;;;12.25;12.25;;;;;22.26;54.26;101224.59;4974892;28;45447;-44
2022/09/01 02:26:28;;;;;;;;;14.75;12.75;;;;;22.26;54.61;101224.59;4974125;28;46266;-46
2022/09/01 02:28:56;;;;;;;;;12.50;11.75;;;;;22.24;54.53;101222.06;4974378;28;45228;-43
2022/09/01 02:31:22;;;;;;;;;14.00;12.75;;;;;22.23;54.83;101227.72;4974567;28;45468;-46
2022/09/01 02:33:48;;;;;;;;;12.25;12.00;;;;;22.21;55.18;101225.22;4973365;28;45475;-46
2022/09/01 02:36:18;;;;;;;;;14.75;13.75;;;;;22.20;54.95;101223.53;4975634;28;45414;-48
2022/09/01 02:38:44;;;;;;;;;15.75;14.00;;;;;22.21;54.99;101224.41;4973946;28;45470;-48
2022/09/01 02:41:12;;;;;;;;;15.00;12.25;;;;;22.16;55.03;101222.31;4974491;28;45229;-45
2022/09/01 02:43:38;;;;;;;;;12.25;12.25;;;;;22.14;54.97;101222.53;4974574;28;45448;-46
2022/09/01 02:46:05;;;;;;;;;13.00;11.00;;;;;22.14;55.22;101222.53;4974109;28;47267;-45
2022/09/01 02:48:36;;;;;;;;;13.20;13.20;;;;;22.15;54.76;101224.19;4974199;28;45444;-45
2022/09/01 02:51:05;;;;;;;;;12.75;11.25;;;;;22.06;54.77;101209.16;4974452;28;45180;-45
2022/09/01 02:53:33;;;;;;;;;13.25;12.25;;;;;22.13;55.07;101215.44;4974474;28;45385;-45
2022/09/01 02:56:01;;;;;;;;;14.25;11.50;;;;;22.12;55.14;101219.22;4973905;28;46401;-46
2022/09/01 02:58:27;;;;;;;;;10.00;10.00;;;;;22.10;55.10;101220.41;4973918;28;45319;-44
2022/09/01 03:00:56;;;;;;;;;11.50;11.00;;;;;22.09;55.35;101216.88;4974078;28;45380;-44
2022/09/01 03:03:22;;;;;;;;;12.50;11.00;;;;;22.10;55.18;101220.41;4974348;28;45425;-46
2022/09/01 03:05:55;;;;;;;;;18.00;11.25;;;;;22.03;55.06;101209.56;4973794;28;46316;-45
2022/09/01 03:08:23;;;;;;;;;17.25;12.00;;;;;22.06;55.86;101214.59;4973871;28;45368;-47
2022/09/01 03:10:50;;;;;;;;;14.00;12.50;;;;;22.07;55.37;101216.25;4974118;28;45465;-46
2022/09/01 03:13:19;;;;;;;;;14.00;12.25;;;;;22.06;55.44;101214.59;4974170;28;45397;-44
2022/09/01 03:15:45;;;;;;;;;13.75;12.00;;;;;22.03;55.48;101209.56;4975836;28;45324;-52
2022/09/01 03:18:12;;;;;;;;;14.25;14.25;;;;;22.01;55.36;101206.25;4974091;28;45659;-46
2022/09/01 03:20:42;;;;;;;;;10.50;10.50;;;;;22.00;55.48;101211.91;4973703;28;45383;-43
2022/09/01 03:23:10;;;;;;;;;14.00;11.75;;;;;21.99;55.53;101215.63;4974162;28;45288;-44
2022/09/01 03:25:36;;;;;;;;;13.25;13.00;;;;;21.99;55.58;101211.03;4973468;28;45340;-45
2022/09/01 03:28:03;;;;;;;;;11.40;10.20;;;;;22.00;55.68;101207.31;4973775;28;45462;-52
2022/09/01 03:30:31;;;;;;;;;16.50;13.00;;;;;22.03;55.71;101208.75;4975403;28;45457;-47
2022/09/01 03:32:57;;;;;;;;;16.50;12.50;;;;;22.01;55.75;101208.97;4973648;28;45232;-46
2022/09/01 03:35:25;;;;;;;;;13.00;13.00;;;;;22.01;55.85;101200.84;4973619;28;45520;-44
2022/09/01 03:37:51;;;;;;;;;14.20;10.20;;;;;21.99;56.12;101207.50;4973322;28;45407;-46
2022/09/01 03:40:17;;;;;;;;;14.75;13.75;;;;;21.97;55.67;101202.31;4975710;28;45506;-47
2022/09/01 03:42:44;;;;;;;;;13.50;11.25;;;;;21.97;56.06;101204.19;4976967;28;45440;-47
2022/09/01 03:45:14;;;;;;;;;14.00;9.75;;;;;21.92;55.45;101207.53;4976163;28;45268;-47
2022/09/01 03:47:42;;;;;;;;;10.80;10.40;;;;;21.86;55.52;101198.34;4976463;28;45335;-44
2022/09/01 03:50:19;;;;;;;;;12.25;11.00;;;;;21.82;55.47;101202.50;4976701;28;45374;-45
2022/09/01 03:52:51;;;;;;;;;11.25;11.00;;;;;21.76;54.94;101203.38;4976905;28;45352;-47
2022/09/01 03:55:22;;;;;;;;;12.50;10.00;;;;;21.72;55.48;101195.88;4976324;28;45547;-56
2022/09/01 03:57:49;;;;;;;;;13.60;12.40;;;;;21.72;56.12;101196.69;4976462;28;45319;-46
2022/09/01 04:00:19;;;;;;;;;13.00;13.00;;;;;21.67;56.31;101194.63;4976859;28;45468;-47
2022/09/01 04:02:48;;;;;;;;;16.00;11.00;;;;;21.54;56.39;101183.81;4975294;27;45567;-45
2022/09/01 04:05:13;;;;;;;;;13.25;11.50;;;;;21.53;56.22;101186.69;4976047;28;47474;-46
2022/09/01 04:07:39;;;;;;;;;10.75;10.00;;;;;21.58;56.75;101206.72;4976480;28;45416;-43
2022/09/01 04:10:05;;;;;;;;;12.25;10.75;;;;;21.57;56.64;101204.19;4976364;28;45421;-46
2022/09/01 04:12:30;;;;;;;;;11.75;11.00;;;;;21.54;56.63;101200.03;4976276;28;45651;-46
2022/09/01 04:14:56;;;;;;;;;12.00;10.00;;;;;21.52;56.44;101194.00;4975852;28;47141;-46
2022/09/01 04:20:08;;;;;;;;;12.75;11.75;;;;;21.49;56.76;101185.44;4976303;28;45476;-44
2022/09/01 04:22:34;;;;;;;;;13.50;12.75;;;;;21.47;56.23;101192.97;4976349;28;45250;-45
2022/09/01 04:25:00;;;;;;;;;12.75;11.00;;;;;21.47;56.78;101193.78;4974577;28;47318;-46
2022/09/01 04:27:25;;;;;;;;;11.00;11.00;;;;;21.45;55.98;101190.47;4975947;28;45299;-45
2022/09/01 04:29:51;;;;;;;;;11.75;9.50;;;;;21.43;56.31;101181.72;4975954;28;45170;-45
2022/09/01 04:32:20;;;;;;;;;13.25;12.00;;;;;21.41;56.28;101187.34;4976374;28;45338;-44
2022/09/01 04:34:45;;;;;;;;;13.00;11.00;;;;;21.38;56.72;101189.63;4975705;28;46205;-46
2022/09/01 04:37:16;;;;;;;;;11.75;11.75;;;;;21.34;56.44;101191.06;4975504;28;45536;-44
2022/09/01 04:39:48;;;;;;;;;15.50;12.50;;;;;21.31;56.76;101186.88;4976186;28;45178;-44
2022/09/01 04:42:15;;;;;;;;;12.00;10.00;;;;;21.23;56.81;101178.13;4975975;28;45431;-46
2022/09/01 04:44:42;;;;;;;;;14.25;13.50;;;;;21.28;56.83;101191.84;4975510;28;46277;-48
2022/09/01 04:47:11;;;;;;;;;13.00;10.25;;;;;21.13;56.47;101165.84;4975846;28;45340;-48
2022/09/01 04:49:36;;;;;;;;;12.50;11.00;;;;;21.21;56.52;101189.16;4975884;28;45367;-46
2022/09/01 04:52:03;;;;;;;;;15.25;13.75;;;;;21.20;57.27;101183.97;4974994;28;45473;-53
2022/09/01 04:54:29;;;;;;;;;12.50;10.50;;;;;21.20;57.41;101192.06;4976243;28;46300;-47
2022/09/01 04:56:54;;;;;;;;;14.00;11.00;;;;;21.20;56.95;101190.19;4975778;28;45442;-44
2022/09/01 04:59:23;;;;;;;;;13.00;11.75;;;;;21.22;57.46;101189.97;4975809;28;45394;-49
2022/09/01 05:01:49;;;;;;;;;12.25;11.50;;;;;21.17;56.67;101177.91;4975957;28;45337;-48
2022/09/01 05:04:17;;;;;;;;;14.75;12.00;;;;;21.22;56.57;101189.97;4976902;28;46437;-44
2022/09/01 05:06:45;;;;;;;;;16.75;14.25;;;;;21.20;57.48;101187.50;4975007;28;45383;-45
2022/09/01 05:09:12;;;;;;;;;14.00;10.25;;;;;21.21;57.10;101191.03;4974384;28;45493;-46
2022/09/01 05:11:40;;;;;;;;;15.50;12.00;;;;;21.21;56.40;101194.56;4975217;28;45429;-46
2022/09/01 05:14:05;;;;;;;;;12.00;11.25;;;;;21.19;57.04;101191.22;4976932;28;46107;-52
2022/09/01 05:16:33;;;;;;;;;13.25;11.50;;;;;21.23;56.67;101197.88;4975552;28;45382;-47
2022/09/01 05:19:00;;;;;;;;;10.25;10.00;;;;;21.25;56.49;101193.13;4975792;28;45311;-44
2022/09/01 05:21:28;;;;;;;;;12.00;10.25;;;;;21.23;56.75;101187.06;4975750;28;45609;-46
2022/09/01 05:23:56;;;;;;;;;12.50;12.50;;;;;21.28;56.27;101191.84;4975579;28;45482;-46
2022/09/01 05:26:28;;;;;;;;;11.50;11.50;;;;;21.23;56.55;101186.22;4975244;28;45403;-47
2022/09/01 05:28:57;;;;;;;;;12.00;12.00;;;;;21.32;56.73;101202.13;4990411;28;45388;-47
2022/09/01 05:31:26;;;;;;;;;10.00;9.25;;;;;21.33;56.00;101202.94;4975275;28;45554;-45
2022/09/01 05:33:52;;;;;;;;;9.25;9.00;;;;;21.32;56.24;101201.25;4975134;28;47258;-47
2022/09/01 05:36:22;;;;;;;;;14.00;12.50;;;;;21.32;55.88;101196.72;4975187;28;45374;-44
2022/09/01 05:38:50;;;;;;;;;19.50;14.50;;;;;21.31;56.24;101188.75;4975005;28;45438;-45
2022/09/01 05:41:18;;;;;;;;;9.50;9.50;;;;;21.34;56.28;101193.78;4975646;28;45398;-48
2022/09/01 05:43:47;;;;;;;;;12.00;10.00;;;;;21.33;55.98;101200.25;4974814;28;45958;-47
2022/09/01 05:46:15;;;;;;;;;12.75;12.50;;;;;21.32;55.63;101196.72;4974831;28;45707;-46
2022/09/01 05:48:41;;;;;;;;;12.00;12.00;;;;;21.35;56.20;101203.56;4976883;28;45240;-47
2022/09/01 05:51:08;;;;;;;;;13.50;12.00;;;;;21.37;56.16;101204.19;4975239;28;45370;-47
2022/09/01 05:53:33;;;;;;;;;14.25;10.50;;;;;21.41;56.12;101203.59;4974828;28;45359;-47
2022/09/01 05:56:05;;;;;;;;;9.50;9.00;;;;;21.51;56.01;101195.03;4975086;28;45422;-46
2022/09/01 05:58:32;;;;;;;;;14.50;12.00;;;;;21.53;55.08;101192.13;4974786;28;45437;-46
2022/09/01 06:00:58;;;;;;;;;11.00;10.25;;;;;21.56;55.51;101191.69;4975191;28;45394;-44
2022/09/01 06:03:25;;;;;;;;;14.50;13.50;;;;;21.59;55.43;101194.84;4974169;28;46295;-47
2022/09/01 06:05:51;;;;;;;;;12.75;11.25;;;;;21.60;54.79;101196.50;4976266;28;45447;-49
2022/09/01 06:08:20;;;;;;;;;14.50;13.25;;;;;21.57;55.29;101193.38;4975093;28;45481;-45
2022/09/01 06:10:47;;;;;;;;;15.00;11.00;;;;;21.64;55.28;101207.75;4974882;28;45471;-49
2022/09/01 06:13:14;;;;;;;;;11.50;11.00;;;;;21.68;54.57;101203.56;4974183;28;46272;-44
2022/09/01 06:15:41;;;;;;;;;14.25;12.75;;;;;21.72;54.85;101196.69;4974724;28;45389;-47
2022/09/01 06:18:10;;;;;;;;;12.75;10.25;;;;;21.75;54.94;101201.72;4974795;28;45431;-45
2022/09/01 06:20:43;;;;;;;;;15.50;11.50;;;;;21.76;54.12;101200.66;4974963;28;45174;-47
2022/09/01 06:23:14;;;;;;;;;14.50;13.00;;;;;21.76;54.57;101205.25;4974665;28;47896;-45
2022/09/01 06:25:45;;;;;;;;;14.50;12.75;;;;;21.83;54.35;101211.50;4974267;28;45355;-46
2022/09/01 06:28:15;;;;;;;;;13.50;10.50;;;;;21.86;54.53;101211.06;4974434;28;45372;-45
2022/09/01 06:30:43;;;;;;;;;11.75;10.25;;;;;21.94;54.13;101213.56;4974803;28;45421;-46
2022/09/01 06:33:11;;;;;;;;;12.50;12.50;;;;;21.98;53.68;101213.97;4974227;28;46309;-48
2022/09/01 06:35:37;;;;;;;;;12.20;11.80;;;;;22.08;53.67;101214.38;4974469;28;45225;-47
2022/09/01 06:38:03;;;;;;;;;13.25;13.25;;;;;22.17;53.88;101213.16;4974428;28;45459;-45
2022/09/01 06:40:29;;;;;;;;;14.75;14.75;;;;;22.27;53.01;101207.28;4974744;28;45328;-48
2022/09/01 06:42:55;;;;;;;;;12.50;10.00;;;;;22.33;53.05;101214.53;4974047;28;46194;-50
2022/09/01 06:45:23;;;;;;;;;13.25;11.75;;;;;22.37;53.07;101205.78;4974355;28;45491;-47
2022/09/01 06:47:51;;;;;;;;;19.00;14.75;;;;;22.46;52.80;101210.97;4974504;28;45465;-52
2022/09/01 06:50:20;;;;;;;;;12.50;12.50;;;;;22.56;53.12;101212.19;4973154;28;45265;-49
2022/09/01 06:52:49;;;;;;;;;10.25;7.00;;;;;22.66;52.62;101204.41;4974342;28;45361;-50
2022/09/01 06:55:15;;;;;;;;;13.00;13.00;;;;;22.62;52.39;101202.34;4974034;28;45406;-47
2022/09/01 06:57:47;;;;;;;;;12.20;12.20;;;;;22.77;52.26;101212.94;4974158;28;45329;-47
2022/09/01 07:00:16;;;;;;;;;13.75;12.75;;;;;22.87;52.39;101213.28;4974143;28;45408;-51
2022/09/01 07:02:46;;;;;;;;;15.25;14.25;;;;;22.94;52.15;101216.03;4973196;28;46527;-53
2022/09/01 07:05:17;;;;;;;;;12.40;11.40;;;;;23.01;52.10;101212.22;4973984;28;45416;-48
2022/09/01 07:07:56;;;;;;;;;11.80;10.40;;;;;23.11;51.61;101220.72;4973967;28;45255;-48
2022/09/01 07:10:24;;;;;;;;;12.75;12.00;;;;;23.29;51.40;101206.41;4974063;28;45280;-55
2022/09/01 07:12:54;;;;;;;;;9.75;9.75;;;;;23.59;50.81;101205.75;4973838;28;45414;-53
2022/09/01 07:15:21;;;;;;;;;12.00;11.80;;;;;23.84;50.13;101208.50;4975634;28;45485;-51
2022/09/01 07:17:52;;;;;;;;;13.20;12.00;;;;;23.89;50.05;101201.34;4977087;28;45303;-46
2022/09/01 07:20:20;;;;;;;;;12.25;10.00;;;;;24.01;50.06;101208.75;4977176;28;45436;-48
2022/09/01 07:22:50;;;;;;;;;11.60;11.60;;;;;24.27;48.93;101204.91;4976634;28;47234;-49
2022/09/01 07:25:16;;;;;;;;;12.40;12.40;;;;;24.87;47.88;101216.78;4976850;28;45449;-50
2022/09/01 07:27:49;;;;;;;;;11.00;11.00;;;;;25.62;46.52;101213.59;4976873;28;45210;-54
2022/09/01 07:30:17;;;;;;;;;10.75;10.25;;;;;26.09;45.04;101208.19;4977336;28;45442;-48
2022/09/01 07:32:43;;;;;;;;;12.40;12.40;;;;;26.32;44.88;101210.03;4978039;28;46335;-49
2022/09/01 07:35:10;;;;;;;;;2.75;0.50;;;;;26.38;44.93;101213.72;4976915;28;45330;-45
2022/09/01 07:37:38;;;;;;;;;15.40;10.80;;;;;26.32;45.25;101211.94;4978212;28;45340;-50
2022/09/01 07:40:06;;;;;;;;;11.00;10.20;;;;;26.13;44.89;101214.81;4976795;28;45448;-49
2022/09/01 07:42:32;;;;;;;;;13.40;11.60;;;;;26.20;44.51;101220.13;4976366;28;46238;-47
2022/09/01 07:44:58;;;;;;;;;12.20;11.60;;;;;26.61;44.03;101219.16;4976472;28;45445;-55
2022/09/01 07:47:24;;;;;;;;;8.60;8.40;;;;;27.28;43.29;101210.34;4976884;28;45498;-52
2022/09/01 07:49:49;;;;;;;;;14.25;12.50;;;;;27.88;41.33;101205.31;4976993;28;45351;-48
2022/09/01 07:52:16;;;;;;;;;12.50;10.25;;;;;28.18;40.91;101208.50;4976231;28;47108;-51
2022/09/01 07:54:42;;;;;;;;;11.00;10.20;;;;;28.52;39.84;101192.81;4976582;28;45288;-48
2022/09/01 07:57:07;;;;;;;;;10.75;10.75;;;;;29.20;38.99;101212.50;4976441;28;45415;-48
2022/09/01 07:59:34;;;;;;;;;11.75;9.75;;;;;29.36;38.11;101191.50;4976771;28;45509;-56
2022/09/01 08:02:00;;;;;;;;;10.40;9.60;;;;;29.79;37.28;101209.72;4976298;28;46042;-46
2022/09/01 08:04:26;;;;;;;;;9.20;9.00;;;;;30.24;36.68;101216.59;4976201;28;45384;-47
2022/09/01 08:06:52;;;;;;;;;9.25;9.25;;;;;30.76;36.94;101225.88;4976523;28;45280;-45
2022/09/01 08:09:17;;;;;;;;;10.40;10.00;;;;;31.38;34.75;101211.19;4976513;28;45404;-50
2022/09/01 08:11:43;;;;;;;;;10.75;9.50;;;;;31.56;34.40;101212.56;4976176;28;45394;-49
2022/09/01 08:14:09;;;;;;;;;9.00;9.00;;;;;31.37;36.16;101212.31;4976174;28;45276;-56
2022/09/01 08:16:34;;;;;;;;;13.50;10.75;;;;;31.06;34.84;101212.25;4975897;28;45327;-50
2022/09/01 08:18:59;;;;;;;;;13.50;10.25;;;;;31.06;34.92;101215.00;4976660;28;45469;-54
2022/09/01 08:21:25;;;;;;;;;11.50;9.75;;;;;31.23;35.11;101214.75;4976015;28;46265;-49
2022/09/01 08:23:53;;;;;;;;;10.20;10.00;;;;;31.46;35.23;101207.06;4976029;28;45410;-46
2022/09/01 08:26:22;;;;;;;;;13.40;11.00;;;;;31.63;34.58;101215.03;4975931;28;45403;-46
2022/09/01 08:28:47;;;;;;;;;12.60;12.60;;;;;31.90;33.70;101206.50;4975962;28;45347;-43
2022/09/01 08:31:16;;;;;;;;;10.00;10.00;;;;;31.63;34.73;101212.28;4974727;28;45888;-47
2022/09/01 08:33:43;;;;;;;;;11.60;9.20;;;;;30.97;35.12;101213.88;4975806;28;45340;-54
2022/09/01 08:36:11;;;;;;;;;8.20;8.20;;;;;30.56;36.10;101212.91;4975923;28;45319;-48
2022/09/01 08:38:38;;;;;;;;;10.60;9.40;;;;;29.99;36.36;101214.50;4975993;28;45426;-46
2022/09/01 08:41:14;;;;;;;;;11.60;10.20;;;;;29.63;37.82;101218.09;4975572;28;45279;-47
2022/09/01 08:43:51;;;;;;;;;9.80;9.40;;;;;29.66;37.34;101212.88;4975370;28;45453;-47
2022/09/01 08:46:23;;;;;;;;;11.60;9.40;;;;;30.17;37.43;101216.03;4975719;28;45409;-49
2022/09/01 08:48:52;;;;;;;;;10.40;9.20;;;;;30.95;36.29;101221.56;4975852;28;45315;-45
2022/09/01 08:51:37;;;;;;;;;12.20;9.40;;;;;31.71;34.82;101211.75;4975730;28;47083;-47
2022/09/01 08:54:27;;;;;;;;;12.20;10.60;;;;;32.59;33.40;101208.50;4975430;28;45354;-50
2022/09/01 08:56:58;;;;;;;;;11.20;11.20;;;;;33.68;32.13;101218.56;4975626;28;45425;-45
2022/09/01 08:59:25;;;;;;;;;12.60;10.20;;;;;35.14;29.37;101208.78;4975695;28;45394;-46
2022/09/01 09:02:17;;;;;;;;;11.40;9.60;;;;;37.11;26.40;101220.22;4975538;28;46126;-47
2022/09/01 09:05:04;;;;;;;;;12.00;9.20;;;;;38.95;26.26;101227.16;4975477;28;45379;-46
2022/09/01 09:07:35;;;;;;;;;9.20;9.00;;;;;39.65;24.09;101220.38;4975550;28;45450;-48
2022/09/01 09:10:13;;;;;;;;;12.00;12.00;;;;;40.42;23.42;101225.19;4975805;28;45448;-49
2022/09/01 09:13:03;;;;;;;;;10.60;8.60;;;;;41.35;24.42;101227.59;4975259;28;47195;-48
2022/09/01 09:15:50;;;;;;;;;9.00;9.00;;;;;42.51;22.42;101219.94;4975192;28;45251;-47
2022/09/01 09:18:23;;;;;;;;;8.00;7.40;;;;;42.75;22.51;101221.91;4975502;28;45278;-47
2022/09/01 09:20:50;;;;;;;;;13.00;10.80;;;;;42.53;20.30;101214.03;4975766;28;45388;-47
2022/09/01 09:23:28;;;;;;;;;10.60;8.60;;;;;43.63;19.68;101221.22;4975359;28;47207;-47
2022/09/01 09:25:54;;;;;;;;;9.60;9.60;;;;;44.97;18.34;101206.00;4975210;28;45463;-48
2022/09/01 09:28:19;;;;;;;;;9.75;9.75;;;;;45.79;17.84;101210.38;4975348;28;45546;-46
2022/09/01 09:30:44;;;;;;;;;11.00;9.50;;;;;46.65;16.20;101208.91;4975490;28;45412;-48
2022/09/01 09:33:35;;;;;;;;;8.00;8.00;;;;;47.45;17.87;101208.63;4975104;28;46063;-48
2022/09/01 09:36:19;;;;;;;;;11.00;9.60;;;;;47.97;15.80;101210.31;4975149;28;45555;-45
2022/09/01 09:38:45;;;;;;;;;11.80;9.00;;;;;47.56;16.90;101201.09;4974263;28;45769;-46
2022/09/01 09:41:20;;;;;;;;;9.50;7.50;;;;;44.84;17.38;101203.69;4975719;28;45305;-45
2022/09/01 09:43:57;;;;;;;;;11.40;10.00;;;;;42.17;20.02;101198.88;4975113;28;45247;-47
2022/09/01 09:46:36;;;;;;;;;9.20;9.20;;;;;40.48;21.62;101204.31;4974824;28;45374;-46
2022/09/01 09:49:10;;;;;;;;;10.40;10.40;;;;;39.34;22.93;101209.47;4975001;28;45230;-46
2022/09/01 09:51:39;;;;;;;;;11.00;9.20;;;;;38.88;23.85;101208.16;4975259;28;45446;-45
2022/09/01 09:54:18;;;;;;;;;11.00;9.40;;;;;38.59;23.84;101205.97;4974722;28;46091;-47
2022/09/01 09:56:45;;;;;;;;;9.60;9.60;;;;;39.21;23.40;101207.66;4974900;28;45430;-45
2022/09/01 09:59:29;;;;;;;;;8.60;8.60;;;;;39.52;23.30;101199.09;4976107;28;45369;-46
2022/09/01 10:01:58;;;;;;;;;12.40;10.00;;;;;38.37;23.69;101206.94;4975167;28;45274;-47
2022/09/01 10:04:36;;;;;;;;;10.20;10.00;;;;;36.78;25.58;101198.22;4974600;28;45387;-45
2022/09/01 10:07:23;;;;;;;;;9.40;9.40;;;;;35.68;26.91;101201.00;4974652;28;45464;-51
2022/09/01 10:09:49;;;;;;;;;11.00;10.40;;;;;35.08;27.81;101206.41;4974770;28;45366;-47
2022/09/01 10:12:15;;;;;;;;;11.40;9.60;;;;;35.11;27.66;101208.59;4974945;28;45400;-46
2022/09/01 10:14:49;;;;;;;;;10.60;9.60;;;;;35.45;26.82;101206.34;4974610;28;46449;-47
2022/09/01 10:17:19;;;;;;;;;10.00;9.00;;;;;36.09;26.47;101198.31;4974615;28;45335;-47
2022/09/01 10:20:03;;;;;;;;;11.00;9.00;;;;;36.29;26.08;101199.84;4974616;28;45359;-47
2022/09/01 10:22:30;;;;;;;;;10.40;9.00;;;;;37.65;25.54;101196.97;4974777;28;45396;-49
2022/09/01 10:24:55;;;;;;;;;9.00;9.00;;;;;38.36;23.78;101196.97;4975585;28;46240;-45
2022/09/01 10:27:28;;;;;;;;;9.25;7.75;;;;;38.43;23.72;101191.75;4974552;28;45406;-45
2022/09/01 10:30:02;;;;;;;;;10.60;8.20;;;;;38.29;24.05;101202.13;4973056;28;45324;-46
2022/09/01 10:32:40;;;;;;;;;7.00;6.60;;;;;37.79;24.97;101185.75;4974776;28;45359;-47
2022/09/01 10:35:11;;;;;;;;;11.00;10.20;;;;;37.56;24.77;101185.00;4974312;27;46446;-47
2022/09/01 10:37:38;;;;;;;;;9.00;9.00;;;;;37.47;24.75;101181.34;4974319;28;45434;-51
2022/09/01 10:40:16;;;;;;;;;8.40;8.40;;;;;37.79;24.22;101179.38;4974306;28;45244;-45
2022/09/01 10:42:52;;;;;;;;;11.00;9.20;;;;;38.66;24.25;101184.09;4974510;28;45463;-45
2022/09/01 10:45:39;;;;;;;;;8.80;8.80;;;;;39.56;22.90;101177.81;4974020;28;46454;-48
2022/09/01 10:48:19;;;;;;;;;13.60;10.60;;;;;39.56;22.80;101179.78;4974494;28;45435;-46
2022/09/01 10:50:46;;;;;;;;;8.80;8.80;;;;;39.86;22.47;101175.09;4976372;28;45396;-47
2022/09/01 10:53:33;;;;;;;;;8.00;7.80;;;;;40.06;23.29;101173.53;4977330;28;45319;-46
2022/09/01 10:56:07;;;;;;;;;11.40;9.80;;;;;40.06;22.14;101173.53;4976898;28;46215;-46
2022/09/01 10:58:41;;;;;;;;;7.00;7.00;;;;;39.80;22.50;101168.09;4977317;28;45410;-45
2022/09/01 11:01:07;;;;;;;;;7.20;6.40;;;;;40.03;22.21;101168.63;4976870;28;45330;-45
2022/09/01 11:03:37;;;;;;;;;8.75;8.50;;;;;39.75;21.93;101166.31;4976065;28;45437;-51
2022/09/01 11:06:07;;;;;;;;;5.20;4.40;;;;;39.03;22.83;101156.78;4977001;28;47024;-48
2022/09/01 11:08:33;;;;;;;;;7.00;6.00;;;;;38.31;23.90;101165.72;4976855;28;45475;-45
2022/09/01 11:11:27;;;;;;;;;7.75;6.50;;;;;37.18;24.64;101165.97;4977089;28;45424;-46
2022/09/01 11:14:00;;;;;;;;;6.80;6.20;;;;;36.63;24.88;101152.28;4955491;28;45536;-45
2022/09/01 11:16:26;;;;;;;;;11.60;10.80;;;;;36.37;25.46;101160.31;4954912;28;46047;-46
2022/09/01 11:18:53;;;;;;;;;6.00;6.00;;;;;35.89;25.38;101159.91;4955003;28;45359;-45
2022/09/01 11:21:29;;;;;;;;;4.80;2.80;;;;;35.73;25.85;101162.13;4955168;28;45348;-48
2022/09/01 11:24:31;;;;;;;;;8.60;8.60;;;;;36.34;25.37;101158.16;4955514;28;45381;-47
2022/09/01 11:26:57;;;;;;;;;7.20;6.00;;;;;37.04;24.58;101156.06;4954883;28;46059;-53
2022/09/01 11:29:51;;;;;;;;;5.50;5.50;;;;;36.70;24.65;101141.59;4955252;28;45335;-48